Time;durP1;ratioP1;P1;durP2;ratioP2;P2;SDS_P1;SDS_P2;PMS_P1;PMS_P2;Temp;Humidity;BMP_temperature;BMP_pressure;BME280_temperature;BME280_humidity;BME280_pressure;Samples;Min_cycle;Max_cycle;Signal;HPM_P1;HPM_P2
2024/02/11 00:01:58;;;;;;;21.02;17.38;;;7.50;99.90;;;7.99;100.00;95153.72;10299944;28;20639;-62
2024/02/11 00:07:01;;;;;;;18.75;16.83;;;7.50;99.90;;;7.96;100.00;95160.41;10298347;28;20778;-62
2024/02/11 00:12:05;;;;;;;18.00;16.30;;;7.50;99.90;;;7.95;100.00;95151.03;10295970;28;20703;-65
2024/02/11 00:17:10;;;;;;;18.67;16.73;;;7.40;99.90;;;7.93;100.00;95163.75;10288717;28;20236;-64
2024/02/11 00:22:13;;;;;;;19.45;17.45;;;7.40;99.90;;;7.98;100.00;95167.22;10297682;28;20326;-63
2024/02/11 00:27:16;;;;;;;19.27;17.10;;;7.40;99.90;;;7.99;100.00;95173.19;10333747;23;20654;-65
2024/02/11 00:32:21;;;;;;;20.05;18.05;;;7.50;99.90;;;7.90;100.00;95182.34;10399474;28;20332;-64
2024/02/11 00:37:24;;;;;;;18.98;16.98;;;7.40;99.90;;;7.91;100.00;95178.09;10384508;28;20610;-64
2024/02/11 00:42:28;;;;;;;21.20;19.00;;;7.40;99.90;;;7.96;100.00;95189.25;10360453;28;20600;-63
2024/02/11 00:47:34;;;;;;;19.85;17.85;;;7.50;99.90;;;7.98;100.00;95201.97;10360224;28;20238;-64
2024/02/11 00:52:40;;;;;;;21.70;19.43;;;7.50;99.90;;;7.94;100.00;95195.97;10366949;28;20309;-64
2024/02/11 00:57:43;;;;;;;21.10;18.67;;;7.50;99.90;;;7.97;100.00;95198.59;10366634;28;20313;-65
2024/02/11 01:02:48;;;;;;;22.30;19.15;;;7.50;99.90;;;8.02;100.00;95203.78;10365758;28;20226;-64
2024/02/11 01:07:51;;;;;;;20.63;18.37;;;7.60;99.90;;;8.06;100.00;95205.56;10367120;28;20241;-65
2024/02/11 01:12:54;;;;;;;20.95;18.08;;;7.60;99.90;;;8.11;100.00;95212.50;10367061;28;20667;-64
2024/02/11 01:17:59;;;;;;;21.83;19.50;;;7.60;99.90;;;8.11;100.00;95220.13;10366597;28;20242;-64
2024/02/11 01:23:02;;;;;;;22.48;18.27;;;7.60;99.90;;;8.12;100.00;95229.47;10366946;28;20222;-64
2024/02/11 01:28:06;;;;;;;20.87;18.40;;;7.70;99.90;;;8.17;100.00;95231.28;10364948;28;20260;-64
2024/02/11 01:33:10;;;;;;;22.65;18.58;;;7.70;99.90;;;8.17;100.00;95236.34;10361095;28;20230;-63
2024/02/11 01:38:14;;;;;;;23.02;20.63;;;7.70;99.90;;;8.17;100.00;95233.81;10365434;28;20234;-64
2024/02/11 01:43:17;;;;;;;21.80;19.50;;;7.60;99.90;;;8.19;100.00;95230.47;10365393;28;20218;-65
2024/02/11 01:48:22;;;;;;;23.20;20.08;;;7.70;99.90;;;8.15;100.00;95235.44;10364905;28;20237;-64
2024/02/11 01:53:26;;;;;;;19.42;16.98;;;7.70;99.90;;;8.19;100.00;95232.19;10366368;28;20647;-65
2024/02/11 01:58:31;;;;;;;22.65;19.70;;;7.70;99.90;;;8.23;100.00;95250.06;10363950;28;20679;-65
2024/02/11 02:03:36;;;;;;;21.20;18.90;;;7.70;99.90;;;8.17;100.00;95238.91;10364345;28;20230;-65
2024/02/11 02:08:39;;;;;;;19.42;17.38;;;7.70;99.90;;;8.17;100.00;95244.00;10360287;28;20305;-65
2024/02/11 02:13:42;;;;;;;23.42;20.23;;;7.70;99.90;;;8.18;100.00;95245.69;10364286;28;20231;-65
2024/02/11 02:18:49;;;;;;;21.88;19.58;;;7.70;99.90;;;8.21;100.00;95245.78;10363643;28;20615;-64
2024/02/11 02:23:54;;;;;;;22.95;20.50;;;7.70;99.90;;;8.19;100.00;95247.44;10364746;28;20652;-65
2024/02/11 02:28:57;;;;;;;25.98;21.08;;;7.70;99.90;;;8.20;100.00;95236.44;10362448;28;20226;-65
2024/02/11 02:34:00;;;;;;;23.30;20.63;;;7.70;99.90;;;8.22;100.00;95237.34;10363763;28;20616;-65
2024/02/11 02:39:05;;;;;;;20.88;18.67;;;7.70;99.90;;;8.33;100.00;95246.06;10362929;28;20226;-65
2024/02/11 02:44:09;;;;;;;24.08;20.55;;;7.80;99.90;;;8.20;100.00;95239.81;10363373;28;20230;-64
2024/02/11 02:49:13;;;;;;;23.80;21.38;;;7.70;99.90;;;8.23;100.00;95242.44;10358405;28;20232;-65
2024/02/11 02:54:17;;;;;;;22.20;19.63;;;7.80;99.90;;;8.27;100.00;95246.78;10356432;28;20652;-65
2024/02/11 02:59:21;;;;;;;23.38;20.65;;;7.80;99.90;;;8.31;100.00;95245.16;10363365;28;20233;-64
2024/02/11 03:04:24;;;;;;;21.00;18.73;;;7.80;99.90;;;8.25;100.00;95243.34;10359343;28;20326;-65
2024/02/11 03:09:31;;;;;;;23.67;20.73;;;7.80;99.90;;;8.29;100.00;95249.34;10359872;28;20230;-65
2024/02/11 03:14:34;;;;;;;24.25;21.75;;;7.80;99.90;;;8.31;100.00;95253.66;10362934;28;20603;-65
2024/02/11 03:19:37;;;;;;;27.75;22.98;;;7.80;99.90;;;8.31;100.00;95248.56;10360477;28;20709;-65
2024/02/11 03:24:42;;;;;;;21.65;19.33;;;7.80;99.90;;;8.30;100.00;95256.19;10361455;28;20234;-62
2024/02/11 03:29:45;;;;;;;21.45;19.15;;;7.80;99.90;;;8.35;100.00;95262.22;10361088;28;20325;-65
2024/02/11 03:34:48;;;;;;;24.92;22.00;;;7.90;99.90;;;8.39;100.00;95261.50;10361995;28;20226;-65
2024/02/11 03:39:53;;;;;;;24.58;21.98;;;7.90;99.90;;;8.37;100.00;95268.22;10359818;28;20230;-65
2024/02/11 03:44:56;;;;;;;23.85;21.27;;;7.90;99.90;;;8.34;100.00;95283.41;10357089;28;20801;-65
2024/02/11 03:49:59;;;;;;;19.25;17.27;;;7.80;99.90;;;8.29;100.00;95301.09;10360110;28;20230;-65
2024/02/11 03:55:09;;;;;;;20.42;18.33;;;7.80;99.90;;;8.38;100.00;95307.25;10361836;28;20237;-63
2024/02/11 04:00:16;;;;;;;12.27;11.18;;;7.80;99.90;;;8.59;100.00;95314.59;10356432;28;20640;-64
2024/02/11 04:05:22;;;;;;;3.80;3.50;;;7.90;99.90;;;8.61;100.00;95328.19;10361977;28;20276;-65
2024/02/11 04:10:29;;;;;;;3.95;3.65;;;8.10;99.90;;;8.52;100.00;95349.19;10360605;28;20238;-65
2024/02/11 04:15:35;;;;;;;2.95;2.75;;;7.90;99.90;;;8.46;100.00;95360.09;10360931;28;20728;-65
2024/02/11 04:20:38;;;;;;;4.15;3.75;;;7.90;99.90;;;8.18;100.00;95370.38;10361646;28;20219;-65
2024/02/11 04:25:45;;;;;;;5.07;4.68;;;7.80;99.90;;;8.12;100.00;95378.69;10365990;28;20238;-65
2024/02/11 04:30:48;;;;;;;4.60;3.83;;;7.80;99.90;;;8.20;100.00;95389.09;10367427;28;20266;-64
2024/02/11 04:35:52;;;;;;;3.70;3.40;;;7.80;99.90;;;8.09;100.00;95393.88;10368685;28;20230;-65
2024/02/11 04:40:56;;;;;;;2.60;2.40;;;7.70;99.90;;;8.23;100.00;95396.78;10368167;28;20227;-65
2024/02/11 04:46:03;;;;;;;1.90;1.80;;;7.60;99.90;;;8.16;100.00;95405.09;10367391;28;20635;-65
2024/02/11 04:51:07;;;;;;;1.40;1.40;;;7.70;99.90;;;7.98;100.00;95416.47;10369159;28;20230;-65
2024/02/11 04:56:12;;;;;;;1.48;1.38;;;7.50;99.90;;;8.02;100.00;95420.84;10367050;28;20857;-64
2024/02/11 05:01:15;;;;;;;1.50;1.30;;;7.50;99.90;;;7.83;100.00;95421.16;10367347;28;20567;-65
2024/02/11 05:06:23;;;;;;;1.43;1.33;;;7.30;99.90;;;7.78;100.00;95427.78;10367149;28;20234;-65
2024/02/11 05:11:28;;;;;;;2.17;1.97;;;7.30;99.90;;;7.68;100.00;95439.41;10366965;28;20633;-65
2024/02/11 05:16:33;;;;;;;1.30;1.20;;;7.30;99.90;;;7.79;100.00;95444.78;10365994;28;20730;-65
2024/02/11 05:21:37;;;;;;;1.20;1.20;;;7.20;99.90;;;7.73;100.00;95455.66;10367680;28;20234;-65
2024/02/11 05:26:41;;;;;;;1.50;1.50;;;7.20;99.90;;;7.68;100.00;95462.28;10365867;28;20714;-64
2024/02/11 05:31:45;;;;;;;1.35;1.35;;;7.10;99.90;;;7.72;100.00;95475.94;10366281;28;20616;-64
2024/02/11 05:36:48;;;;;;;1.60;1.50;;;7.10;99.90;;;7.62;100.00;95483.28;10365458;28;20601;-65
2024/02/11 05:41:52;;;;;;;1.30;1.30;;;7.00;99.90;;;7.56;100.00;95497.50;10364857;28;20238;-64
2024/02/11 05:46:56;;;;;;;1.60;1.60;;;6.90;99.90;;;7.31;100.00;95498.44;10364034;28;20265;-64
2024/02/11 05:51:59;;;;;;;1.20;1.20;;;6.70;99.90;;;7.12;100.00;95510.53;10366813;28;20245;-64
2024/02/11 05:57:06;;;;;;;1.50;1.50;;;6.60;99.90;;;7.04;100.00;95522.16;10363832;28;20244;-64
2024/02/11 06:02:09;;;;;;;1.63;1.63;;;6.50;99.90;;;6.94;100.00;95530.28;10364057;28;20230;-65
2024/02/11 06:07:13;;;;;;;1.60;1.60;;;6.40;99.90;;;6.98;100.00;95532.09;10359605;28;20242;-65
2024/02/11 06:12:17;;;;;;;1.70;1.70;;;6.40;99.90;;;7.02;100.00;95541.53;10365198;28;20325;-64
2024/02/11 06:17:21;;;;;;;1.40;1.40;;;6.40;99.90;;;6.87;100.00;95549.53;10363658;28;20233;-64
2024/02/11 06:22:25;;;;;;;1.50;1.50;;;6.30;99.90;;;6.68;100.00;95550.56;10364923;28;20229;-64
2024/02/11 06:27:29;;;;;;;1.50;1.40;;;6.10;99.90;;;6.58;100.00;95551.06;10363545;28;20234;-64
2024/02/11 06:32:32;;;;;;;2.13;2.03;;;6.10;99.90;;;6.50;100.00;95565.16;10363513;28;20230;-65
2024/02/11 06:37:36;;;;;;;1.90;1.80;;;6.00;99.90;;;6.54;100.00;95574.59;10364245;28;20987;-65
2024/02/11 06:42:42;;;;;;;2.23;2.07;;;6.10;99.90;;;6.51;100.00;95580.44;10362165;28;20317;-64
2024/02/11 06:47:46;;;;;;;1.87;1.83;;;6.00;99.90;;;6.46;100.00;95586.16;10363163;28;20230;-64
2024/02/11 06:52:50;;;;;;;2.17;2.10;;;6.00;99.90;;;6.58;100.00;95600.94;10363324;28;20258;-64
2024/02/11 06:57:56;;;;;;;2.20;2.10;;;6.00;99.90;;;6.46;100.00;95602.22;10362341;28;20234;-64
2024/02/11 07:03:02;;;;;;;3.00;2.80;;;5.90;99.90;;;6.43;100.00;95607.19;10362220;28;20226;-64
2024/02/11 07:08:08;;;;;;;2.30;2.20;;;5.90;99.90;;;6.48;100.00;95615.00;10361844;28;20614;-64
2024/02/11 07:13:13;;;;;;;2.20;2.10;;;5.90;99.90;;;6.50;100.00;95623.53;10379219;23;20324;-67
2024/02/11 07:18:16;;;;;;;2.70;2.60;;;5.90;99.90;;;6.45;100.00;95630.97;10383857;28;20229;-67
2024/02/11 07:23:20;;;;;;;2.90;2.80;;;5.90;99.90;;;6.51;100.00;95627.78;10387445;28;20788;-67
2024/02/11 07:28:25;;;;;;;3.27;3.07;;;6.00;99.90;;;6.45;100.00;95640.25;10354342;28;20289;-68
2024/02/11 07:33:28;;;;;;;4.03;3.83;;;6.00;99.90;;;6.46;100.00;95647.03;10360866;28;20736;-69
2024/02/11 07:38:31;;;;;;;9.77;8.97;;;6.00;99.90;;;6.53;100.00;95649.00;10369970;28;20312;-68
2024/02/11 07:43:37;;;;;;;6.80;6.20;;;6.00;99.90;;;6.46;100.00;95650.44;10372409;28;20713;-67
2024/02/11 07:48:40;;;;;;;6.23;5.57;;;6.00;99.90;;;6.50;100.00;95659.06;10381306;28;20225;-67
2024/02/11 07:53:45;;;;;;;3.67;3.47;;;6.00;99.90;;;6.39;100.00;95667.94;10383350;28;20725;-67
2024/02/11 07:58:50;;;;;;;4.90;4.40;;;6.00;99.90;;;6.40;100.00;95678.13;10383298;28;20225;-67
2024/02/11 08:03:54;;;;;;;3.90;3.60;;;6.00;99.90;;;6.38;100.00;95678.88;10382416;28;20617;-67
2024/02/11 08:08:58;;;;;;;6.60;4.77;;;6.00;99.90;;;6.50;100.00;95676.81;10386220;28;20236;-68
2024/02/11 08:14:03;;;;;;;47.17;29.97;;;6.10;99.90;;;6.71;100.00;95680.13;10386089;28;20249;-68
2024/02/11 08:19:08;;;;;;;5.80;5.30;;;6.20;99.90;;;6.83;100.00;95674.63;10384194;28;20214;-69
2024/02/11 08:24:12;;;;;;;51.60;41.80;;;6.30;99.90;;;6.75;100.00;95681.97;10385717;28;20237;-68
2024/02/11 08:29:16;;;;;;;4.87;4.37;;;6.30;99.90;;;6.84;100.00;95689.06;10386509;28;20272;-69
2024/02/11 08:34:20;;;;;;;20.50;14.17;;;6.30;99.90;;;6.69;100.00;95691.88;10373488;28;20296;-68
2024/02/11 08:39:25;;;;;;;3.83;3.53;;;6.30;99.90;;;6.63;100.00;95703.50;10387571;28;20369;-68
2024/02/11 08:44:30;;;;;;;8.63;6.90;;;6.30;99.90;;;6.58;100.00;95708.44;10375704;28;20320;-68
2024/02/11 08:49:33;;;;;;;4.37;3.93;;;6.30;99.90;;;6.63;100.00;95713.66;10371790;28;20250;-67
2024/02/11 08:54:36;;;;;;;5.97;5.37;;;6.30;99.90;;;6.56;100.00;95711.72;10385024;28;20663;-67
2024/02/11 08:59:42;;;;;;;12.17;10.97;;;6.30;99.90;;;6.80;100.00;95720.22;10384285;28;20233;-66
2024/02/11 09:04:45;;;;;;;5.37;4.80;;;6.40;99.90;;;6.95;100.00;95725.88;10383087;28;20736;-67
2024/02/11 09:09:49;;;;;;;5.90;5.30;;;6.60;99.90;;;6.95;100.00;95717.34;10382177;28;20276;-67
2024/02/11 09:14:53;;;;;;;5.47;4.37;;;6.60;99.90;;;7.05;100.00;95724.50;10381832;28;20239;-67
2024/02/11 09:19:57;;;;;;;7.03;6.03;;;6.70;99.90;;;7.23;100.00;95722.59;10387624;28;20222;-66
2024/02/11 09:25:00;;;;;;;5.50;5.00;;;6.90;99.90;;;7.32;100.00;95736.44;10387800;28;20222;-67
2024/02/11 09:30:07;;;;;;;5.30;4.80;;;6.90;99.90;;;7.36;100.00;95730.69;10371243;28;20588;-68
2024/02/11 09:35:11;;;;;;;35.07;28.57;;;7.00;99.90;;;7.39;100.00;95738.41;10373473;28;20576;-68
2024/02/11 09:40:17;;;;;;;9.50;7.20;;;7.00;99.90;;;7.55;100.00;95743.19;10384182;28;20266;-67
2024/02/11 09:45:26;;;;;;;11.27;9.63;;;7.20;99.90;;;7.67;100.00;95733.44;10381363;28;20816;-68
2024/02/11 09:50:31;;;;;;;15.03;11.60;;;7.20;99.90;;;7.66;100.00;95736.78;10380179;28;20237;-66
2024/02/11 09:55:36;;;;;;;21.70;15.67;;;7.30;99.90;;;7.95;100.00;95743.66;10385933;28;20241;-66
2024/02/11 10:00:41;;;;;;;7.57;6.87;;;7.50;99.90;;;8.09;100.00;95756.00;10383840;28;20717;-67
2024/02/11 10:05:48;;;;;;;7.05;6.35;;;7.60;99.90;;;8.17;100.00;95768.13;10374687;28;20238;-67
2024/02/11 10:10:52;;;;;;;6.60;5.83;;;7.80;99.90;;;8.26;100.00;95776.03;10371225;28;20253;-67
2024/02/11 10:15:57;;;;;;;51.65;32.80;;;7.80;99.90;;;8.44;100.00;95778.31;10364156;28;20597;-67
2024/02/11 10:21:02;;;;;;;11.18;8.55;;;7.90;99.90;;;8.42;100.00;95785.94;10362832;28;20230;-67
2024/02/11 10:26:08;;;;;;;11.77;8.75;;;7.90;99.90;;;8.53;100.00;95794.78;10371174;28;20611;-67
2024/02/11 10:31:12;;;;;;;6.60;6.00;;;8.00;99.90;;;8.49;100.00;95792.06;10378965;28;20238;-67
2024/02/11 10:36:16;;;;;;;7.32;6.57;;;7.90;99.90;;;8.49;100.00;95792.06;10373216;28;20234;-68
2024/02/11 10:41:20;;;;;;;7.80;6.07;;;8.00;99.90;;;8.86;100.00;95788.97;10373419;28;20710;-67
2024/02/11 10:46:31;;;;;;;8.43;5.72;;;8.30;99.90;;;8.82;100.00;95791.41;10494416;28;21188;-68
2024/02/11 10:51:39;;;;;;;8.73;6.38;;;8.30;99.90;;;8.88;100.00;95787.34;10438526;28;20720;-67
2024/02/11 10:56:44;;;;;;;7.78;5.35;;;8.70;99.90;;;8.81;100.00;95790.50;10437172;28;20224;-67
2024/02/11 11:01:49;;;;;;;7.20;6.57;;;8.40;99.90;;;8.97;100.00;95790.16;10438819;28;20229;-67
2024/02/11 11:06:53;;;;;;;7.50;5.00;;;8.50;99.90;;;9.02;100.00;95786.06;10436353;28;20248;-67
2024/02/11 11:12:07;;;;;;;6.57;5.70;;;8.50;99.90;;;9.21;100.00;95787.47;10438966;28;20684;-67
2024/02/11 11:17:20;;;;;;;7.30;5.20;;;8.60;99.90;;;9.33;100.00;95792.03;10440554;28;20225;-68
2024/02/11 11:22:25;;;;;;;5.85;5.25;;;8.80;99.90;;;9.43;100.00;95791.47;10436853;28;20245;-67
2024/02/11 11:27:29;;;;;;;5.90;4.80;;;8.90;99.90;;;9.55;100.00;95784.97;10434558;28;20781;-67
2024/02/11 11:32:34;;;;;;;6.18;5.40;;;9.10;99.90;;;9.61;100.00;95791.09;10437237;28;20227;-67
2024/02/11 11:37:38;;;;;;;5.72;5.05;;;9.20;99.90;;;9.68;100.00;95787.03;10436589;28;20611;-67
2024/02/11 11:42:41;;;;;;;5.40;4.75;;;9.20;99.90;;;9.64;100.00;95777.56;10440673;28;20275;-67
2024/02/11 11:47:45;;;;;;;5.45;4.95;;;9.30;99.90;;;9.63;100.00;95780.94;10437354;28;20311;-65
2024/02/11 11:53:00;;;;;;;5.68;5.15;;;9.30;99.90;;;9.61;100.00;95786.00;10436201;28;20283;-66
2024/02/11 11:58:04;;;;;;;6.80;4.65;;;9.30;99.90;;;9.41;100.00;95789.69;10399165;28;20675;-67
2024/02/11 12:03:08;;;;;;;5.32;4.88;;;9.10;99.90;;;9.35;100.00;95787.84;10405753;28;20347;-66
2024/02/11 12:08:12;;;;;;;5.60;4.55;;;9.00;99.90;;;9.32;100.00;95785.19;10408084;28;20638;-66
2024/02/11 12:13:17;;;;;;;5.43;4.47;;;8.90;99.90;;;9.23;100.00;95790.03;10401242;28;20727;-67
2024/02/11 12:18:21;;;;;;;5.72;4.55;;;8.90;99.90;;;9.46;100.00;95786.44;10401815;28;20228;-66
2024/02/11 12:23:25;;;;;;;6.00;5.07;;;9.00;99.90;;;9.63;100.00;95784.34;10387236;28;20230;-67
2024/02/11 12:28:31;;;;;;;5.15;4.60;;;9.30;99.90;;;9.85;100.00;95785.78;10386673;28;20259;-66
2024/02/11 12:33:38;;;;;;;4.35;4.05;;;9.40;99.90;;;10.04;100.00;95779.47;10387920;28;20225;-66
2024/02/11 12:38:44;;;;;;;4.32;3.88;;;9.70;99.90;;;10.19;100.00;95775.56;10393133;28;20313;-65
2024/02/11 12:43:49;;;;;;;5.18;4.00;;;9.90;99.90;;;10.24;99.42;95777.41;10398916;28;20225;-66
2024/02/11 12:48:55;;;;;;;4.75;3.58;;;10.00;99.90;;;10.36;100.00;95775.19;10399363;28;20796;-66
2024/02/11 12:53:58;;;;;;;7.47;3.70;;;10.00;99.90;;;10.43;99.47;95772.78;10394720;28;20237;-67
2024/02/11 12:59:02;;;;;;;4.05;3.42;;;10.10;99.90;;;10.42;95.68;95781.28;10404203;28;20743;-66
2024/02/11 13:04:06;;;;;;;3.50;3.20;;;9.90;99.90;;;10.45;97.05;95776.25;10400481;28;20222;-67
2024/02/11 13:09:13;;;;;;;3.25;2.95;;;10.00;99.90;;;10.22;95.97;95784.19;10393446;28;20230;-67
2024/02/11 13:14:16;;;;;;;3.95;3.22;;;10.00;99.90;;;10.15;97.09;95782.28;10401628;28;20230;-66
2024/02/11 13:19:22;;;;;;;3.58;3.28;;;9.70;99.90;;;10.04;92.44;95778.59;10391422;28;20225;-67
2024/02/11 13:24:27;;;;;;;3.65;3.40;;;9.50;99.90;;;10.18;95.90;95784.91;10403709;28;20233;-65
2024/02/11 13:29:32;;;;;;;3.50;3.20;;;9.70;99.90;;;10.17;93.99;95785.75;10393088;28;20236;-64
2024/02/11 13:34:36;;;;;;;4.47;3.35;;;9.70;99.90;;;10.21;93.51;95776.47;10402783;28;20312;-64
2024/02/11 13:39:40;;;;;;;3.65;3.33;;;9.80;99.90;;;10.23;91.85;95783.34;10398775;28;20256;-63
2024/02/11 13:44:43;;;;;;;3.53;3.28;;;9.90;99.90;;;10.38;92.45;95781.19;10372952;28;20701;-67
2024/02/11 13:49:47;;;;;;;3.22;3.03;;;9.90;99.90;;;10.54;91.54;95781.56;10389850;28;20229;-66
2024/02/11 13:54:51;;;;;;;3.10;2.88;;;10.00;99.90;;;10.54;90.51;95789.22;10395967;28;20238;-66
2024/02/11 13:59:57;;;;;;;2.78;2.58;;;10.00;99.90;;;10.77;90.94;95787.19;10403249;28;20214;-66
2024/02/11 14:05:03;;;;;;;2.88;2.67;;;10.30;99.90;;;10.88;87.57;95801.09;10396068;28;20325;-67
2024/02/11 14:10:08;;;;;;;2.55;2.45;;;10.50;99.90;;;10.77;86.06;95805.94;10389920;28;20230;-66
2024/02/11 14:15:14;;;;;;;2.88;2.65;;;10.30;99.90;;;10.56;88.40;95803.75;10404774;28;20231;-66
2024/02/11 14:20:19;;;;;;;2.47;2.33;;;10.10;99.90;;;10.45;88.10;95812.84;10397797;28;20253;-66
2024/02/11 14:25:24;;;;;;;2.33;2.22;;;9.90;99.90;;;10.48;85.01;95822.28;10399563;28;20229;-67
2024/02/11 14:30:27;;;;;;;2.22;2.13;;;9.90;99.90;;;10.23;87.27;95818.22;10398774;28;20787;-67
2024/02/11 14:35:32;;;;;;;2.65;2.45;;;9.70;99.90;;;10.45;88.55;95833.28;10389194;28;20240;-66
2024/02/11 14:40:35;;;;;;;2.70;2.50;;;9.80;99.90;;;10.32;88.14;95831.25;10394771;28;20221;-67
2024/02/11 14:45:38;;;;;;;2.40;2.30;;;9.70;99.90;;;10.20;88.52;95830.91;10389954;28;20622;-66
2024/02/11 14:50:43;;;;;;;3.05;2.80;;;9.50;99.90;;;10.26;86.75;95842.13;10393366;28;20212;-66
2024/02/11 14:55:46;;;;;;;2.55;2.35;;;9.60;99.90;;;10.18;87.29;95848.72;10402005;28;20229;-67
2024/02/11 15:00:50;;;;;;;2.00;1.90;;;9.50;99.90;;;10.23;86.60;95843.75;10397621;28;20724;-67
2024/02/11 15:05:55;;;;;;;2.20;2.10;;;9.50;99.90;;;10.15;86.06;95846.09;10400903;28;20268;-68
2024/02/11 15:10:58;;;;;;;3.88;3.58;;;9.50;99.90;;;10.08;86.26;95860.41;10396326;28;20222;-66
2024/02/11 15:16:01;;;;;;;3.08;2.88;;;9.40;99.90;;;10.07;88.54;95862.91;10396547;28;20583;-66
2024/02/11 15:21:06;;;;;;;3.50;3.30;;;9.40;99.90;;;9.91;88.87;95879.50;10395920;28;20222;-67
2024/02/11 15:26:10;;;;;;;3.95;3.55;;;9.20;99.90;;;10.14;89.31;95883.53;10394932;28;20245;-67
2024/02/11 15:31:13;;;;;;;3.25;2.97;;;9.30;99.90;;;10.03;92.83;95895.13;10399142;28;20233;-64
2024/02/11 15:36:18;;;;;;;3.03;2.83;;;9.30;99.90;;;10.04;89.80;95898.56;10406153;28;20231;-66
2024/02/11 15:41:21;;;;;;;3.13;2.83;;;9.30;99.90;;;9.85;92.01;95900.63;10400068;28;20724;-66
2024/02/11 15:46:24;;;;;;;3.17;2.97;;;9.10;99.90;;;9.68;93.73;95910.34;10409307;28;20241;-67
2024/02/11 15:51:29;;;;;;;2.70;2.50;;;9.00;99.90;;;9.68;95.25;95912.88;10401411;28;20232;-67
2024/02/11 15:56:32;;;;;;;3.08;2.78;;;9.00;99.90;;;9.55;95.50;95926.09;10395903;28;20232;-64
2024/02/11 16:01:35;;;;;;;5.22;4.60;;;8.90;99.90;;;9.40;93.87;95921.41;10402957;28;20237;-68
2024/02/11 16:06:40;;;;;;;4.63;4.22;;;8.70;99.90;;;9.40;97.38;95926.50;10407605;28;20236;-65
2024/02/11 16:11:44;;;;;;;4.78;4.38;;;8.70;99.90;;;9.44;98.77;95923.25;10411646;28;20317;-65
2024/02/11 16:16:47;;;;;;;5.00;4.50;;;8.70;99.90;;;9.41;98.42;95925.72;10402024;28;20252;-67
2024/02/11 16:21:52;;;;;;;4.05;3.67;;;8.70;99.90;;;9.31;98.96;95931.34;10405083;28;20300;-68
2024/02/11 16:26:55;;;;;;;4.28;3.97;;;8.70;99.90;;;9.28;100.00;95951.63;10410476;28;20596;-70
2024/02/11 16:31:59;;;;;;;4.53;3.95;;;8.60;99.90;;;9.26;100.00;95943.06;10400766;28;20225;-67
2024/02/11 16:37:03;;;;;;;7.38;5.45;;;8.60;99.90;;;9.23;100.00;95955.72;10395965;28;20261;-68
2024/02/11 16:42:07;;;;;;;14.93;11.07;;;8.60;99.90;;;9.17;100.00;95963.19;10397473;28;20604;-68
2024/02/11 16:47:11;;;;;;;7.35;6.70;;;8.40;99.90;;;9.42;97.74;95969.91;10405854;28;20717;-64
2024/02/11 16:52:16;;;;;;;5.75;5.10;;;8.60;99.90;;;9.34;97.86;95967.13;10396440;28;20236;-67
2024/02/11 16:57:19;;;;;;;4.75;4.28;;;8.60;99.90;;;9.24;97.34;95981.28;10404662;28;20237;-66
2024/02/11 17:02:26;;;;;;;3.80;3.53;;;8.50;99.90;;;9.32;95.27;95986.59;10405621;28;20233;-63
2024/02/11 17:07:30;;;;;;;2.92;2.60;;;8.50;99.90;;;9.23;93.81;95983.75;10400078;28;20230;-67
2024/02/11 17:12:34;;;;;;;3.47;3.17;;;8.50;99.90;;;9.22;93.84;95998.19;10395787;28;20225;-66
2024/02/11 17:17:38;;;;;;;3.83;3.53;;;8.40;99.90;;;9.14;94.96;96003.88;10393221;28;20763;-65
2024/02/11 17:22:43;;;;;;;3.90;3.60;;;8.40;99.90;;;9.06;95.61;96010.38;10392259;28;20236;-66
2024/02/11 17:27:47;;;;;;;4.78;4.38;;;8.40;99.90;;;8.96;97.30;96014.34;10393407;28;20794;-63
2024/02/11 17:32:55;;;;;;;5.75;5.25;;;8.30;99.90;;;8.93;98.16;96034.63;10370585;28;20729;-66
2024/02/11 17:38:01;;;;;;;8.10;7.30;;;8.20;99.90;;;8.90;99.22;96039.56;10403081;28;20541;-66
2024/02/11 17:43:06;;;;;;;6.47;5.88;;;8.20;99.90;;;8.86;100.00;96050.50;10395530;28;20295;-66
2024/02/11 17:48:10;;;;;;;6.30;5.70;;;8.20;99.90;;;8.84;100.00;96054.66;10398556;28;20678;-66
2024/02/11 17:53:15;;;;;;;6.55;5.97;;;8.10;99.90;;;8.77;100.00;96061.22;10394886;28;20226;-67
2024/02/11 17:58:19;;;;;;;5.93;5.43;;;8.10;99.90;;;8.72;100.00;96066.16;10394612;28;20236;-66
2024/02/11 18:03:26;;;;;;;6.38;5.45;;;8.00;99.90;;;8.70;100.00;96077.09;10396812;28;20650;-67
2024/02/11 18:08:30;;;;;;;5.75;5.22;;;8.00;99.90;;;8.69;100.00;96090.66;10408407;28;20226;-67
2024/02/11 18:13:33;;;;;;;7.47;6.78;;;8.00;99.90;;;8.61;99.83;96082.72;10406783;28;20228;-66
2024/02/11 18:18:37;;;;;;;7.32;6.60;;;7.90;99.90;;;8.65;100.00;96082.03;10395355;28;20646;-66
2024/02/11 18:23:42;;;;;;;5.85;5.43;;;7.90;99.90;;;8.64;100.00;96076.88;10388658;28;20312;-66
2024/02/11 18:28:46;;;;;;;8.98;6.35;;;7.90;99.90;;;8.67;100.00;96087.19;10398613;28;20230;-66
2024/02/11 18:33:50;;;;;;;5.03;4.63;;;8.00;99.90;;;8.72;100.00;96085.66;10388377;28;20233;-67
2024/02/11 18:38:55;;;;;;;4.25;3.60;;;8.00;99.90;;;8.73;100.00;96088.28;10393029;28;20252;-67
2024/02/11 18:43:58;;;;;;;5.45;4.93;;;8.00;99.90;;;8.70;99.46;96089.84;10388687;28;20237;-66
2024/02/11 18:49:01;;;;;;;6.35;5.75;;;8.00;99.90;;;8.59;96.93;96098.81;10388435;28;20225;-67
2024/02/11 18:54:06;;;;;;;5.40;4.90;;;7.90;99.90;;;8.57;97.40;96098.72;10387982;28;20324;-66
2024/02/11 18:59:09;;;;;;;6.70;6.00;;;7.90;99.90;;;8.65;97.19;96110.06;10391979;28;20229;-67
2024/02/11 19:04:14;;;;;;;4.63;3.95;;;8.00;99.90;;;8.67;95.77;96103.34;10396788;28;20236;-66
2024/02/11 19:09:18;;;;;;;17.27;14.00;;;8.00;99.90;;;8.68;94.82;96109.31;10403342;28;20311;-66
2024/02/11 19:14:22;;;;;;;10.02;8.70;;;8.00;99.90;;;8.67;96.70;96110.09;10403944;28;20225;-66
2024/02/11 19:19:26;;;;;;;14.68;12.38;;;8.00;99.90;;;8.67;96.04;96115.19;10400854;28;20671;-66
2024/02/11 19:24:30;;;;;;;7.22;6.43;;;8.00;99.90;;;8.75;94.43;96117.19;10409128;28;20226;-66
2024/02/11 19:29:34;;;;;;;5.20;4.20;;;8.10;99.90;;;8.83;91.96;96114.94;10408076;28;20641;-67
2024/02/11 19:34:37;;;;;;;3.92;3.38;;;8.20;99.90;;;8.85;92.19;96115.88;10398048;28;20701;-65
2024/02/11 19:39:42;;;;;;;5.63;4.75;;;8.20;99.90;;;8.72;92.15;96123.88;10392719;28;20237;-67
2024/02/11 19:44:45;;;;;;;4.75;4.25;;;8.10;99.90;;;8.73;92.78;96128.19;10396015;28;20587;-66
2024/02/11 19:49:49;;;;;;;4.68;4.20;;;8.10;99.90;;;8.82;90.58;96138.69;10389094;28;20245;-67
2024/02/11 19:54:53;;;;;;;4.03;3.60;;;8.10;99.90;;;8.80;91.04;96145.41;10395371;28;20320;-67
2024/02/11 19:59:57;;;;;;;4.68;4.28;;;8.10;99.90;;;8.74;90.98;96161.31;10406265;28;20234;-68
2024/02/11 20:05:01;;;;;;;5.72;5.15;;;8.10;99.90;;;8.92;90.41;96156.00;10407138;28;20374;-67
2024/02/11 20:10:09;;;;;;;4.07;3.78;;;8.20;99.90;;;8.94;87.99;96163.72;10400082;28;20618;-67
2024/02/11 20:15:12;;;;;;;3.08;2.85;;;8.30;99.90;;;8.93;87.67;96167.97;10386755;28;20230;-65
2024/02/11 20:20:16;;;;;;;4.70;2.92;;;8.20;99.90;;;8.98;86.64;96171.53;10386123;28;20234;-66
2024/02/11 20:25:21;;;;;;;3.08;2.50;;;8.30;99.90;;;8.98;86.01;96175.75;10389949;28;20594;-67
2024/02/11 20:30:24;;;;;;;3.15;2.85;;;8.20;99.90;;;8.82;86.74;96184.53;10392674;28;20551;-66
2024/02/11 20:35:28;;;;;;;2.47;2.28;;;8.10;99.90;;;8.89;87.24;96181.38;10396628;28;20856;-65
2024/02/11 20:40:33;;;;;;;2.83;2.53;;;8.00;99.90;;;8.60;88.33;96197.28;10398417;28;20604;-65
2024/02/11 20:45:37;;;;;;;2.95;2.65;;;7.80;99.90;;;8.56;88.14;96197.19;10396266;28;20226;-67
2024/02/11 20:50:40;;;;;;;4.60;3.70;;;7.80;99.90;;;8.48;88.88;96208.75;10390823;28;20605;-67
2024/02/11 20:55:47;;;;;;;4.80;4.35;;;7.80;99.90;;;8.30;88.46;96216.50;10389268;28;20234;-66
2024/02/11 21:00:51;;;;;;;5.50;5.00;;;7.70;99.90;;;8.56;87.02;96222.63;10389958;28;20711;-67
2024/02/11 21:05:54;;;;;;;3.00;2.80;;;7.80;99.90;;;8.77;86.06;96216.63;10405953;28;20305;-68
2024/02/11 21:10:59;;;;;;;2.90;2.70;;;7.90;99.90;;;8.69;86.28;96218.88;10397195;28;20218;-67
2024/02/11 21:16:04;;;;;;;21.98;12.75;;;7.90;99.90;;;8.63;85.21;96211.00;10398084;28;20245;-67